createdAt,value
2023-01-30T17:02:01.648Z,112.50
2023-01-30T17:03:37.122Z,112.75
2023-01-30T17:05:18.995Z,114.50
2023-01-30T17:06:53.479Z,110.75
2023-01-30T17:08:31.047Z,114.75
2023-01-30T17:10:03.057Z,111.50
2023-01-30T17:11:41.476Z,114.00
2023-01-30T17:13:44.657Z,105.00
2023-01-30T17:15:16.704Z,108.25
2023-01-30T17:17:07.877Z,102.50
2023-01-30T17:18:39.837Z,104.00
2023-01-30T17:20:12.484Z,100.25
2023-01-30T17:21:51.175Z,102.25
2023-01-30T17:23:23.152Z,97.25
2023-01-30T17:24:58.735Z,95.25
2023-01-30T17:26:31.103Z,97.25
2023-01-30T17:28:03.134Z,88.75
2023-01-30T17:29:43.423Z,92.00
2023-01-30T17:31:16.737Z,87.75
2023-01-30T17:32:50.764Z,89.50
2023-01-30T17:34:24.105Z,80.75
2023-01-30T17:35:56.024Z,87.25
2023-01-30T17:37:28.019Z,83.00
2023-01-30T17:39:00.269Z,92.00
2023-01-30T17:40:36.560Z,80.50
2023-01-30T17:42:12.579Z,76.50
2023-01-30T17:43:44.464Z,81.75
2023-01-30T17:45:16.542Z,84.25
2023-01-30T17:46:49.148Z,84.25
2023-01-30T17:48:21.115Z,88.75
2023-01-30T17:49:53.336Z,88.50
2023-01-30T17:51:25.221Z,90.50
2023-01-30T17:52:57.182Z,94.50
2023-01-30T17:54:30.257Z,90.00
2023-01-30T17:56:02.279Z,90.00
2023-01-30T17:57:34.161Z,92.50
2023-01-30T17:59:07.556Z,91.75
2023-01-30T18:00:39.511Z,88.00
2023-01-30T18:02:11.529Z,84.00
2023-01-30T18:03:44.858Z,91.00
2023-01-30T18:05:16.947Z,89.00
2023-01-30T18:06:50.982Z,82.25
2023-01-30T18:08:22.997Z,87.25
2023-01-30T18:09:55.224Z,86.50
2023-01-30T18:11:27.231Z,81.75
2023-01-30T18:12:59.202Z,84.00
2023-01-30T18:14:31.549Z,81.50
2023-01-30T18:16:03.955Z,83.00
2023-01-30T18:17:37.385Z,74.50
2023-01-30T18:19:12.593Z,77.75
2023-01-30T18:20:45.038Z,73.25
2023-01-30T18:22:17.243Z,71.25
2023-01-30T18:23:50.265Z,78.50
2023-01-30T18:25:22.583Z,67.60
2023-01-30T18:26:54.635Z,70.75
2023-01-30T18:28:26.565Z,72.80
2023-01-30T18:29:58.547Z,69.60
2023-01-30T18:31:30.778Z,73.75
2023-01-30T18:33:02.764Z,74.25
2023-01-30T18:34:35.480Z,70.60
2023-01-30T18:36:09.185Z,62.00
2023-01-30T18:37:41.091Z,57.00
2023-01-30T18:39:13.296Z,59.00
2023-01-30T18:40:45.207Z,51.00
2023-01-30T18:42:17.119Z,51.00
2023-01-30T18:43:54.278Z,49.00
2023-01-30T18:45:26.325Z,45.00
2023-01-30T18:46:58.578Z,50.50
2023-01-30T18:48:31.990Z,53.25
2023-01-30T18:50:04.692Z,49.75
2023-01-30T18:51:36.736Z,60.50
2023-01-30T18:53:08.862Z,53.20
2023-01-30T18:54:40.851Z,61.50
2023-01-30T18:56:14.380Z,62.60
2023-01-30T18:57:46.432Z,62.00
2023-01-30T18:59:18.248Z,67.80
2023-01-30T19:00:50.348Z,61.80
2023-01-30T19:02:22.450Z,65.80
2023-01-30T19:03:58.220Z,70.75
2023-01-30T19:05:30.285Z,69.80
2023-01-30T19:07:02.240Z,65.40
2023-01-30T19:08:34.195Z,67.20
2023-01-30T19:10:06.497Z,60.20
2023-01-30T19:11:56.795Z,64.40
2023-01-30T19:13:34.836Z,62.00
2023-01-30T19:15:07.222Z,64.60
2023-01-30T19:16:39.401Z,66.00
2023-01-30T19:18:11.324Z,59.00
2023-01-30T19:19:43.629Z,51.75
2023-01-30T19:21:16.426Z,57.25
2023-01-30T19:22:48.825Z,60.25
2023-01-30T19:24:21.294Z,55.60
2023-01-30T19:25:56.878Z,69.80
2023-01-30T19:27:28.736Z,65.40
2023-01-30T19:29:00.822Z,65.40
2023-01-30T19:30:32.776Z,88.00
2023-01-30T19:32:05.032Z,87.25
2023-01-30T19:33:36.973Z,89.25
2023-01-30T19:35:09.466Z,76.25
2023-01-30T19:36:41.806Z,76.00
2023-01-30T19:38:13.841Z,75.25
2023-01-30T19:39:45.779Z,72.50
2023-01-30T19:41:22.415Z,71.25
2023-01-30T19:42:56.864Z,72.25
2023-01-30T19:44:31.596Z,71.20
2023-01-30T19:46:03.580Z,73.75
2023-01-30T19:47:35.606Z,69.60
2023-01-30T19:49:07.486Z,64.60
2023-01-30T19:50:39.459Z,65.00
2023-01-30T19:52:11.356Z,62.80
2023-01-30T19:53:44.160Z,71.00
2023-01-30T19:55:18.801Z,59.40
2023-01-30T19:56:50.785Z,57.60
2023-01-30T19:58:22.731Z,57.25
2023-01-30T19:59:54.748Z,54.00
2023-01-30T20:01:29.801Z,60.00
2023-01-30T20:03:02.575Z,59.50
2023-01-30T20:04:34.457Z,57.50
2023-01-30T20:06:13.065Z,57.25
2023-01-30T20:07:46.638Z,47.50
2023-01-30T20:09:19.377Z,53.50
2023-01-30T20:10:51.414Z,52.00
2023-01-30T20:12:24.248Z,46.00
2023-01-30T20:13:56.367Z,48.00
2023-01-30T20:15:28.570Z,44.75
2023-01-30T20:17:00.670Z,48.75
2023-01-30T20:18:35.208Z,43.00
2023-01-30T20:20:07.548Z,41.00
2023-01-30T20:21:39.434Z,44.50
2023-01-30T20:23:11.251Z,42.50
2023-01-30T20:24:43.214Z,38.75
2023-01-30T20:26:20.032Z,44.00
2023-01-30T20:27:52.036Z,43.75
2023-01-30T20:29:24.010Z,35.50
2023-01-30T20:30:55.872Z,36.25
2023-01-30T20:32:28.033Z,36.75
2023-01-30T20:34:01.293Z,37.75
2023-01-30T20:35:34.747Z,35.25
2023-01-30T20:37:07.434Z,36.50
2023-01-30T20:38:42.818Z,38.75
2023-01-30T20:40:15.075Z,37.75
2023-01-30T20:41:46.979Z,37.25
2023-01-30T20:43:18.858Z,34.50
2023-01-30T20:44:50.713Z,34.25
2023-01-30T20:46:29.884Z,28.75
2023-01-30T20:48:01.770Z,31.50
2023-01-30T20:49:33.697Z,34.25
2023-01-30T20:51:09.668Z,36.25
2023-01-30T20:52:42.723Z,38.50
2023-01-30T20:54:14.959Z,43.75
2023-01-30T20:55:48.895Z,43.25
2023-01-30T20:57:20.876Z,44.00
2023-01-30T20:58:52.757Z,43.75
2023-01-30T21:00:24.750Z,44.50
2023-01-30T21:01:56.806Z,42.75
2023-01-30T21:03:28.760Z,51.50
2023-01-30T21:05:00.757Z,47.25
2023-01-30T21:06:41.737Z,64.40
2023-01-30T21:08:17.020Z,55.25
2023-01-30T21:09:48.973Z,50.75
2023-01-30T21:11:21.044Z,51.50
2023-01-30T21:12:53.031Z,44.50
2023-01-30T21:14:26.602Z,50.00
2023-01-30T21:16:03.988Z,54.50
2023-01-30T21:17:35.986Z,47.00
2023-01-30T21:19:11.145Z,53.50
2023-01-30T21:20:49.910Z,47.75
2023-01-30T21:22:22.280Z,54.25
2023-01-30T21:23:55.524Z,53.75
2023-01-30T21:25:27.442Z,55.25
2023-01-30T21:26:59.353Z,50.25
2023-01-30T21:28:32.193Z,55.75
2023-01-30T21:30:04.728Z,56.50
2023-01-30T21:31:37.638Z,51.00
2023-01-30T21:33:09.589Z,54.25
2023-01-30T21:34:41.455Z,53.50
2023-01-30T21:36:13.330Z,57.75
2023-01-30T21:38:04.123Z,46.25
2023-01-30T21:39:54.748Z,55.25
2023-01-30T21:41:47.225Z,47.75
2023-01-30T21:43:19.199Z,51.75
2023-01-30T21:44:51.189Z,52.75
2023-01-30T21:46:23.215Z,46.50
2023-01-30T21:47:55.225Z,43.50
2023-01-30T21:49:28.125Z,46.75
2023-01-30T21:51:09.200Z,49.50
2023-01-30T21:52:41.073Z,45.50
2023-01-30T21:54:13.483Z,52.00
2023-01-30T21:55:52.919Z,46.50
2023-01-30T21:57:24.816Z,40.75
2023-01-30T21:58:59.434Z,42.50
2023-01-30T22:00:31.369Z,36.00
2023-01-30T22:02:03.265Z,35.50
2023-01-30T22:03:35.531Z,38.25
2023-01-30T22:05:08.185Z,37.00
2023-01-30T22:06:40.164Z,38.00
2023-01-30T22:08:12.186Z,38.25
2023-01-30T22:09:44.408Z,39.00
2023-01-30T22:11:19.525Z,37.25
2023-01-30T22:12:51.472Z,43.75
2023-01-30T22:14:23.347Z,46.00
2023-01-30T22:15:55.307Z,42.75
2023-01-30T22:17:27.257Z,49.75
2023-01-30T22:19:01.524Z,49.00
2023-01-30T22:20:33.454Z,49.25
2023-01-30T22:22:05.449Z,44.75
2023-01-30T22:23:38.964Z,49.50
2023-01-30T22:25:10.890Z,50.50
2023-01-30T22:26:42.853Z,50.00
2023-01-30T22:28:14.784Z,51.75
2023-01-30T22:29:46.666Z,52.00
2023-01-30T22:31:19.524Z,54.50
2023-01-30T22:32:54.908Z,52.00
2023-01-30T22:34:26.809Z,48.50
2023-01-30T22:35:58.790Z,49.75
2023-01-30T22:37:30.709Z,47.50
2023-01-30T22:39:02.812Z,49.50
2023-01-30T22:40:34.709Z,48.00
2023-01-30T22:42:07.833Z,46.25
2023-01-30T22:43:39.727Z,183.25
2023-01-30T22:45:11.742Z,104.25
2023-01-30T22:46:43.721Z,92.50
2023-01-30T22:48:16.816Z,88.25
2023-01-30T22:49:49.223Z,80.25
2023-01-30T22:51:22.950Z,71.50
2023-01-30T22:52:55.619Z,74.50
2023-01-30T22:54:27.687Z,62.50
2023-01-30T22:56:01.932Z,68.50
2023-01-30T22:57:33.860Z,65.00
2023-01-30T22:59:06.074Z,69.60
2023-01-30T23:00:38.144Z,64.20
2023-01-30T23:02:10.476Z,68.20
2023-01-30T23:03:43.401Z,72.60
2023-01-30T23:05:15.270Z,67.00
2023-01-30T23:06:47.562Z,63.80
2023-01-30T23:08:19.457Z,64.60
2023-01-30T23:09:51.384Z,57.20
2023-01-30T23:11:24.457Z,58.00
2023-01-30T23:13:08.646Z,60.50
2023-01-30T23:14:40.675Z,65.20
2023-01-30T23:16:13.238Z,49.80
2023-01-30T23:18:03.525Z,66.40
2023-01-30T23:19:35.664Z,64.20
2023-01-30T23:21:11.021Z,67.80
2023-01-30T23:22:42.976Z,64.80
2023-01-30T23:24:16.648Z,70.60
2023-01-30T23:25:48.644Z,65.00
2023-01-30T23:27:20.772Z,67.80
2023-01-30T23:28:52.788Z,69.80
2023-01-30T23:30:24.769Z,67.40
2023-01-30T23:31:56.700Z,73.00
2023-01-30T23:33:28.661Z,66.00
